createdAt,value
2018-04-07T00:00:35.156Z,47.39
2018-04-07T00:01:35.115Z,48.07
2018-04-07T00:02:35.075Z,47.97
2018-04-07T00:03:35.027Z,48.92
2018-04-07T00:04:34.985Z,48.92
2018-04-07T00:05:34.940Z,49.11
2018-04-07T00:06:34.899Z,49.02
2018-04-07T00:07:34.855Z,49.21
2018-04-07T00:08:34.812Z,48.63
2018-04-07T00:09:34.764Z,48.80
2018-04-07T00:10:34.748Z,49.47
2018-04-07T00:11:34.679Z,48.71
2018-04-07T00:12:34.637Z,49.66
2018-04-07T00:13:34.597Z,48.99
2018-04-07T00:14:34.548Z,48.99
2018-04-07T00:15:34.506Z,48.61
2018-04-07T00:16:34.463Z,49.28
2018-04-07T00:17:34.421Z,49.76
2018-04-07T00:18:34.379Z,49.18
2018-04-07T00:19:34.335Z,48.90
2018-04-07T00:20:34.287Z,49.76
2018-04-07T00:21:34.245Z,49.85
2018-04-07T00:22:34.201Z,50.42
2018-04-07T00:23:34.168Z,50.13
2018-04-07T00:24:34.114Z,49.76
2018-04-07T00:25:34.072Z,49.95
2018-04-07T00:26:34.028Z,49.85
2018-04-07T00:27:33.992Z,49.66
2018-04-07T00:28:33.941Z,49.37
2018-04-07T00:29:33.899Z,49.76
2018-04-07T00:30:33.853Z,50.52
2018-04-07T00:31:33.814Z,50.32
2018-04-07T00:32:33.774Z,51.28
2018-04-07T00:33:33.725Z,51.18
2018-04-07T00:34:33.679Z,50.99
2018-04-07T00:35:33.637Z,50.61
2018-04-07T00:36:33.594Z,50.04
2018-04-07T00:37:33.551Z,49.76
2018-04-07T00:38:33.506Z,49.85
2018-04-07T00:39:33.463Z,49.85
2018-04-07T00:40:33.420Z,50.23
2018-04-07T00:41:33.373Z,49.47
2018-04-07T00:42:33.331Z,49.37
2018-04-07T00:43:33.289Z,49.47
2018-04-07T00:44:33.244Z,49.95
2018-04-07T00:45:33.200Z,50.42
2018-04-07T00:46:33.157Z,50.32
2018-04-07T00:47:33.112Z,50.23
2018-04-07T00:48:33.067Z,50.32
2018-04-07T00:49:33.031Z,50.42
2018-04-07T00:50:32.982Z,50.52
2018-04-07T00:51:32.938Z,50.71
2018-04-07T00:52:32.897Z,50.13
2018-04-07T00:53:32.850Z,49.95
2018-04-07T00:54:32.808Z,49.47
2018-04-07T00:55:32.767Z,49.85
2018-04-07T00:56:32.720Z,50.32
2018-04-07T00:57:32.678Z,49.37
2018-04-07T00:58:32.632Z,49.76
2018-04-07T00:59:32.592Z,50.32
2018-04-07T01:00:32.547Z,50.13
2018-04-07T01:01:32.506Z,49.37
2018-04-07T01:02:32.457Z,49.85
2018-04-07T01:03:32.414Z,49.37
2018-04-07T01:04:32.369Z,49.37
2018-04-07T01:05:32.329Z,49.47
2018-04-07T01:06:32.283Z,50.23
2018-04-07T01:07:32.241Z,49.85
2018-04-07T01:08:32.195Z,49.47
2018-04-07T01:09:32.154Z,49.85
2018-04-07T01:10:32.108Z,49.76
2018-04-07T01:11:32.067Z,49.85
2018-04-07T01:12:32.022Z,49.28
2018-04-07T01:13:31.977Z,50.32
2018-04-07T01:14:31.937Z,50.61
2018-04-07T01:15:31.892Z,50.71
2018-04-07T01:16:31.859Z,50.23
2018-04-07T01:17:31.804Z,49.76
2018-04-07T01:18:31.759Z,49.85
2018-04-07T01:19:31.720Z,50.04
2018-04-07T01:20:31.675Z,50.71
2018-04-07T01:21:31.631Z,49.85
2018-04-07T01:22:31.586Z,49.76
2018-04-07T01:23:31.541Z,49.76
2018-04-07T01:24:31.497Z,49.85
2018-04-07T01:25:31.453Z,49.37
2018-04-07T01:26:31.414Z,49.85
2018-04-07T01:27:31.373Z,49.76
2018-04-07T01:28:31.332Z,49.56
2018-04-07T01:29:31.277Z,49.95
2018-04-07T01:30:31.235Z,49.76
2018-04-07T01:31:31.191Z,49.87
2018-04-07T01:32:31.148Z,49.47
2018-04-07T01:33:31.104Z,49.56
2018-04-07T01:34:31.060Z,49.76
2018-04-07T01:35:31.018Z,50.42
2018-04-07T01:36:30.973Z,49.95
2018-04-07T01:37:30.929Z,49.85
2018-04-07T01:38:30.887Z,49.76
2018-04-07T01:39:30.845Z,50.52
2018-04-07T01:40:30.800Z,50.52
2018-04-07T01:41:30.755Z,50.61
2018-04-07T01:42:30.715Z,49.68
2018-04-07T01:43:30.673Z,49.56
2018-04-07T01:44:30.622Z,49.66
2018-04-07T01:45:30.583Z,48.99
2018-04-07T01:46:30.538Z,49.68
2018-04-07T01:47:30.503Z,49.56
2018-04-07T01:48:30.449Z,49.87
2018-04-07T01:49:30.409Z,50.16
2018-04-07T01:50:30.361Z,50.52
2018-04-07T01:51:30.323Z,50.54
2018-04-07T01:52:30.274Z,50.42
2018-04-07T01:53:30.231Z,50.42
2018-04-07T01:54:30.187Z,50.13
2018-04-07T01:55:30.142Z,50.99
2018-04-07T01:56:30.099Z,50.61
2018-04-07T01:57:30.056Z,50.71
2018-04-07T01:58:30.013Z,51.28
2018-04-07T01:59:29.971Z,50.99
2018-04-07T02:00:29.924Z,51.09
2018-04-07T02:01:29.880Z,50.90
2018-04-07T02:02:29.836Z,50.71
2018-04-07T02:03:29.794Z,50.80
2018-04-07T02:04:29.753Z,50.61
2018-04-07T02:05:29.707Z,50.32
2018-04-07T02:06:29.662Z,50.52
2018-04-07T02:07:29.619Z,50.32
2018-04-07T02:08:29.574Z,50.90
2018-04-07T02:09:29.531Z,51.47
2018-04-07T02:10:29.487Z,51.18
2018-04-07T02:11:29.444Z,50.99
2018-04-07T02:12:29.403Z,50.90
2018-04-07T02:13:29.359Z,50.99
2018-04-07T02:14:29.317Z,51.09
2018-04-07T02:15:29.272Z,51.09
2018-04-07T02:16:29.225Z,51.09
2018-04-07T02:17:29.180Z,50.99
2018-04-07T02:18:29.137Z,51.37
2018-04-07T02:19:29.093Z,52.04
2018-04-07T02:20:29.049Z,51.18
2018-04-07T02:21:29.005Z,51.28
2018-04-07T02:22:28.962Z,51.28
2018-04-07T02:23:28.927Z,51.47
2018-04-07T02:24:28.876Z,51.66
2018-04-07T02:25:28.832Z,51.47
2018-04-07T02:26:28.790Z,51.28
2018-04-07T02:27:28.746Z,51.28
2018-04-07T02:28:28.698Z,52.61
2018-04-07T02:29:28.660Z,51.76
2018-04-07T02:30:28.612Z,51.56
2018-04-07T02:31:28.569Z,51.66
2018-04-07T02:32:28.528Z,52.23
2018-04-07T02:33:28.482Z,52.42
2018-04-07T02:34:28.441Z,52.71
2018-04-07T02:35:28.394Z,51.95
2018-04-07T02:36:28.352Z,52.71
2018-04-07T02:37:28.313Z,53.19
2018-04-07T02:38:28.265Z,52.52
2018-04-07T02:39:28.221Z,52.61
2018-04-07T02:40:28.179Z,51.95
2018-04-07T02:41:28.134Z,53.09
2018-04-07T02:42:28.090Z,53.00
2018-04-07T02:43:28.049Z,53.19
2018-04-07T02:44:28.000Z,52.97
2018-04-07T02:45:27.968Z,52.42
2018-04-07T02:46:27.916Z,52.68
2018-04-07T02:47:27.873Z,52.71
2018-04-07T02:48:27.823Z,52.40
2018-04-07T02:49:27.790Z,52.49
2018-04-07T02:50:27.744Z,52.52
2018-04-07T02:51:27.743Z,52.61
2018-04-07T02:52:27.650Z,52.90
2018-04-07T02:53:27.613Z,53.83
2018-04-07T02:54:27.563Z,53.38
2018-04-07T02:55:27.520Z,52.97
2018-04-07T02:56:27.501Z,53.06
2018-04-07T02:57:27.433Z,53.25
2018-04-07T02:58:27.389Z,53.35
2018-04-07T02:59:27.350Z,53.92
2018-04-07T03:00:27.302Z,54.49
2018-04-07T03:01:27.256Z,54.49
2018-04-07T03:02:27.220Z,55.26
2018-04-07T03:03:27.168Z,54.49
2018-04-07T03:04:27.126Z,54.78
2018-04-07T03:05:27.080Z,54.39
2018-04-07T03:06:27.037Z,54.59
2018-04-07T03:07:27.002Z,53.64
2018-04-07T03:08:26.952Z,53.64
2018-04-07T03:09:26.903Z,53.64
2018-04-07T03:10:26.863Z,53.54
2018-04-07T03:11:26.818Z,54.30
2018-04-07T03:12:26.772Z,54.39
2018-04-07T03:13:26.732Z,54.97
2018-04-07T03:14:26.684Z,55.83
2018-04-07T03:15:26.644Z,55.63
2018-04-07T03:16:26.596Z,55.35
2018-04-07T03:17:26.555Z,55.83
2018-04-07T03:18:26.515Z,56.49
2018-04-07T03:19:26.466Z,56.49
2018-04-07T03:20:26.424Z,55.44
2018-04-07T03:21:26.379Z,54.68
2018-04-07T03:22:26.340Z,54.30
2018-04-07T03:23:26.291Z,55.35
2018-04-07T03:24:26.251Z,55.32
2018-04-07T03:25:26.205Z,54.75
2018-04-07T03:26:26.157Z,55.07
2018-04-07T03:27:26.117Z,55.90
2018-04-07T03:28:26.078Z,55.51
2018-04-07T03:29:26.026Z,55.32
2018-04-07T03:30:25.990Z,55.80
2018-04-07T03:31:25.941Z,57.32
2018-04-07T03:32:25.896Z,57.23
2018-04-07T03:33:25.854Z,57.04
2018-04-07T03:34:25.809Z,56.56
2018-04-07T03:35:25.764Z,56.56
2018-04-07T03:36:25.720Z,56.09
2018-04-07T03:37:25.679Z,56.56
2018-04-07T03:38:25.631Z,56.94
2018-04-07T03:39:25.589Z,57.42
2018-04-07T03:40:25.542Z,57.04
2018-04-07T03:41:25.500Z,57.32
2018-04-07T03:42:25.452Z,57.70
2018-04-07T03:43:25.413Z,58.37
2018-04-07T03:44:25.365Z,59.42
2018-04-07T03:45:25.334Z,59.23
2018-04-07T03:46:25.282Z,59.70
2018-04-07T03:47:25.238Z,59.61
2018-04-07T03:48:25.192Z,58.37
2018-04-07T03:49:25.762Z,58.65
2018-04-07T03:50:25.111Z,58.28
2018-04-07T03:51:25.059Z,58.47
2018-04-07T03:52:25.012Z,58.65
2018-04-07T03:53:24.968Z,58.56
2018-04-07T03:54:24.925Z,59.01
2018-04-07T03:55:24.883Z,59.67
2018-04-07T03:56:24.846Z,59.61
2018-04-07T03:57:24.792Z,59.48
2018-04-07T03:58:24.747Z,60.15
2018-04-07T03:59:24.704Z,59.48
2018-04-07T04:00:24.657Z,58.15
2018-04-07T04:01:24.619Z,57.87
2018-04-07T04:02:24.569Z,57.99
2018-04-07T04:03:24.530Z,58.34
2018-04-07T04:04:24.484Z,58.53
2018-04-07T04:05:24.440Z,59.10
2018-04-07T04:06:24.394Z,59.67
2018-04-07T04:07:24.382Z,59.39
2018-04-07T04:08:24.304Z,59.67
2018-04-07T04:09:24.261Z,59.20
2018-04-07T04:10:24.218Z,59.58
2018-04-07T04:11:24.170Z,58.72
2018-04-07T04:12:24.125Z,58.91
2018-04-07T04:13:24.082Z,58.62
2018-04-07T04:14:24.042Z,59.48
2018-04-07T04:15:23.999Z,59.10
2018-04-07T04:16:23.979Z,58.34
2018-04-07T04:17:23.909Z,58.25
2018-04-07T04:18:23.861Z,58.06
2018-04-07T04:19:23.825Z,58.25
2018-04-07T04:20:23.774Z,57.99
2018-04-07T04:21:23.734Z,57.60
2018-04-07T04:22:23.684Z,57.13
2018-04-07T04:23:23.698Z,58.18
2018-04-07T04:24:23.598Z,57.32
2018-04-07T04:25:23.548Z,57.42
2018-04-07T04:26:23.509Z,58.18
2018-04-07T04:27:23.466Z,57.80
2018-04-07T04:28:23.427Z,58.47
2018-04-07T04:29:23.374Z,58.37
2018-04-07T04:30:23.331Z,57.89
2018-04-07T04:31:23.283Z,57.89
2018-04-07T04:32:23.238Z,58.94
2018-04-07T04:33:23.201Z,58.65
2018-04-07T04:34:23.151Z,58.47
2018-04-07T04:35:23.106Z,58.28
2018-04-07T04:36:23.065Z,58.47
2018-04-07T04:37:23.020Z,57.99
2018-04-07T04:38:22.971Z,58.47
2018-04-07T04:39:22.928Z,58.08
2018-04-07T04:40:22.885Z,57.32
2018-04-07T04:41:22.845Z,57.32
2018-04-07T04:42:22.798Z,57.42
2018-04-07T04:43:22.754Z,58.08
2018-04-07T04:44:22.707Z,57.32
2018-04-07T04:45:22.672Z,57.99
2018-04-07T04:46:22.619Z,58.28
2018-04-07T04:47:22.572Z,58.94
2018-04-07T04:48:22.528Z,58.28
2018-04-07T04:49:22.484Z,57.99
2018-04-07T04:50:22.441Z,58.08
2018-04-07T04:51:22.397Z,58.08
2018-04-07T04:52:22.352Z,57.42
2018-04-07T04:53:22.307Z,57.04
2018-04-07T04:54:22.266Z,56.85
2018-04-07T04:55:22.221Z,57.42
2018-04-07T04:56:22.173Z,58.18
2018-04-07T04:57:22.129Z,57.51
2018-04-07T04:58:22.085Z,57.23
2018-04-07T04:59:22.047Z,57.60
2018-04-07T05:00:21.999Z,57.32
2018-04-07T05:01:21.955Z,58.08
2018-04-07T05:02:21.908Z,58.08
2018-04-07T05:03:21.866Z,57.42
2018-04-07T05:04:21.820Z,57.13
2018-04-07T05:05:21.776Z,57.23
2018-04-07T05:06:21.732Z,57.89
2018-04-07T05:07:21.730Z,58.28
2018-04-07T05:08:21.644Z,57.04
2018-04-07T05:09:21.597Z,57.51
2018-04-07T05:10:21.554Z,57.13
2018-04-07T05:11:21.512Z,56.94
2018-04-07T05:12:21.469Z,57.04
2018-04-07T05:13:21.422Z,57.32
2018-04-07T05:14:21.377Z,56.46
2018-04-07T05:15:21.335Z,56.56
2018-04-07T05:16:21.287Z,56.75
2018-04-07T05:17:21.243Z,56.68
2018-04-07T05:18:21.199Z,56.40
2018-04-07T05:19:21.154Z,56.68
2018-04-07T05:20:21.111Z,56.21
2018-04-07T05:21:21.067Z,56.11
2018-04-07T05:22:21.026Z,56.02
2018-04-07T05:23:20.980Z,55.44
2018-04-07T05:24:20.933Z,55.63
2018-04-07T05:25:20.890Z,55.54
2018-04-07T05:26:20.853Z,56.11
2018-04-07T05:27:20.801Z,56.59
2018-04-07T05:28:20.757Z,56.30
2018-04-07T05:29:20.713Z,55.54
2018-04-07T05:30:20.669Z,55.83
2018-04-07T05:31:20.629Z,56.02
2018-04-07T05:32:20.582Z,56.21
2018-04-07T05:33:20.536Z,56.21
2018-04-07T05:34:20.497Z,56.21
2018-04-07T05:35:20.449Z,56.11
2018-04-07T05:36:20.411Z,56.49
2018-04-07T05:37:20.361Z,56.11
2018-04-07T05:38:20.320Z,56.02
2018-04-07T05:39:20.273Z,56.49
2018-04-07T05:40:20.237Z,56.49
2018-04-07T05:41:20.188Z,56.59
2018-04-07T05:42:20.142Z,55.83
2018-04-07T05:43:20.098Z,55.73
2018-04-07T05:44:20.052Z,55.28
2018-04-07T05:45:20.048Z,56.04
2018-04-07T05:46:19.965Z,55.76
2018-04-07T05:47:19.959Z,55.76
2018-04-07T05:48:19.878Z,55.76
2018-04-07T05:49:19.834Z,55.85
2018-04-07T05:50:19.791Z,55.85
2018-04-07T05:51:19.745Z,55.28
2018-04-07T05:52:19.702Z,55.09
2018-04-07T05:53:19.662Z,54.90
2018-04-07T05:54:19.621Z,55.57
2018-04-07T05:55:19.573Z,55.28
2018-04-07T05:56:19.524Z,55.47
2018-04-07T05:57:19.485Z,55.38
2018-04-07T05:58:19.443Z,55.00
2018-04-07T05:59:19.396Z,54.71
2018-04-07T06:00:19.350Z,54.33
2018-04-07T06:01:19.312Z,54.04
2018-04-07T06:02:19.267Z,53.56
2018-04-07T06:03:19.223Z,53.85
2018-04-07T06:04:19.176Z,53.69
2018-04-07T06:05:19.133Z,53.59
2018-04-07T06:06:19.097Z,53.59
2018-04-07T06:07:19.053Z,54.17
2018-04-07T06:08:19.003Z,54.64
2018-04-07T06:09:18.961Z,54.55
2018-04-07T06:10:18.926Z,53.69
2018-04-07T06:11:18.881Z,53.31
2018-04-07T06:12:18.826Z,53.12
2018-04-07T06:13:18.796Z,52.64
2018-04-07T06:14:18.791Z,52.64
2018-04-07T06:15:18.697Z,52.64
2018-04-07T06:16:18.654Z,52.55
2018-04-07T06:17:18.611Z,52.92
2018-04-07T06:18:18.570Z,53.31
2018-04-07T06:19:18.524Z,53.02
2018-04-07T06:20:18.479Z,53.31
2018-04-07T06:21:18.438Z,52.73
2018-04-07T06:22:18.393Z,52.26
2018-04-07T06:23:18.349Z,52.36
2018-04-07T06:24:18.306Z,52.55
2018-04-07T06:25:18.265Z,52.28
2018-04-07T06:26:18.221Z,52.86
2018-04-07T06:27:18.177Z,52.86
2018-04-07T06:28:18.132Z,52.00
2018-04-07T06:29:18.090Z,51.52
2018-04-07T06:30:18.048Z,51.71
2018-04-07T06:31:18.005Z,51.52
2018-04-07T06:32:17.962Z,51.90
2018-04-07T06:33:17.918Z,51.90
2018-04-07T06:34:17.875Z,52.28
2018-04-07T06:35:17.831Z,51.81
2018-04-07T06:36:17.787Z,51.62
2018-04-07T06:37:17.745Z,51.43
2018-04-07T06:38:17.703Z,51.33
2018-04-07T06:39:17.657Z,51.52
2018-04-07T06:40:17.617Z,51.62
2018-04-07T06:41:17.571Z,51.26
2018-04-07T06:42:17.530Z,51.45
2018-04-07T06:43:17.490Z,51.45
2018-04-07T06:44:17.442Z,51.07
2018-04-07T06:45:17.401Z,50.88
2018-04-07T06:46:17.358Z,50.78
2018-04-07T06:47:17.313Z,50.78
2018-04-07T06:48:17.275Z,50.49
2018-04-07T06:49:17.228Z,50.59
2018-04-07T06:50:17.186Z,50.40
2018-04-07T06:51:17.143Z,50.31
2018-04-07T06:52:17.101Z,50.69
2018-04-07T06:53:17.057Z,50.78
2018-04-07T06:54:17.014Z,50.33
2018-04-07T06:55:16.972Z,49.47
2018-04-07T06:56:16.928Z,49.76
2018-04-07T06:57:16.885Z,49.57
2018-04-07T06:58:16.840Z,49.18
2018-04-07T06:59:16.820Z,49.09
2018-04-07T07:00:16.762Z,49.57
2018-04-07T07:01:16.721Z,49.59
2018-04-07T07:02:16.675Z,48.93
2018-04-07T07:03:16.629Z,48.73
2018-04-07T07:04:16.585Z,47.80
2018-04-07T07:05:16.542Z,47.06
2018-04-07T07:06:16.500Z,45.19
2018-04-07T07:07:16.458Z,43.87
2018-04-07T07:08:16.418Z,42.05
2018-04-07T07:09:16.374Z,41.11
2018-04-07T07:10:16.332Z,40.27
2018-04-07T07:11:16.293Z,39.89
2018-04-07T07:12:16.248Z,39.98
2018-04-07T07:13:16.211Z,39.43
2018-04-07T07:14:16.167Z,39.53
2018-04-07T07:15:16.135Z,39.98
2018-04-07T07:16:16.085Z,39.41
2018-04-07T07:17:16.044Z,38.93
2018-04-07T07:18:16.018Z,38.64
2018-04-07T07:19:15.962Z,38.09
2018-04-07T07:20:15.923Z,37.82
2018-04-07T07:21:15.887Z,36.86
2018-04-07T07:22:15.840Z,36.49
2018-04-07T07:23:15.807Z,36.13
2018-04-07T07:24:15.762Z,35.36
2018-04-07T07:25:15.719Z,34.41
2018-04-07T07:26:15.683Z,35.08
2018-04-07T07:27:15.640Z,34.80
2018-04-07T07:28:15.600Z,33.85
2018-04-07T07:29:15.562Z,34.33
2018-04-07T07:30:15.527Z,33.66
2018-04-07T07:31:15.483Z,33.66
2018-04-07T07:32:15.445Z,33.37
2018-04-07T07:33:15.407Z,33.00
2018-04-07T07:34:15.363Z,32.34
2018-04-07T07:35:15.368Z,31.19
2018-04-07T07:36:15.285Z,31.77
2018-04-07T07:37:15.248Z,31.67
2018-04-07T07:38:15.222Z,31.11
2018-04-07T07:39:15.176Z,31.11
2018-04-07T07:40:15.141Z,31.12
2018-04-07T07:41:15.096Z,31.12
2018-04-07T07:42:15.061Z,30.46
2018-04-07T07:43:15.020Z,29.98
2018-04-07T07:44:14.987Z,29.32
2018-04-07T07:45:14.945Z,29.42
2018-04-07T07:46:14.907Z,28.66
2018-04-07T07:47:14.869Z,28.37
2018-04-07T07:48:14.830Z,28.28
2018-04-07T07:49:14.799Z,27.81
2018-04-07T07:50:14.762Z,27.51
2018-04-07T07:51:14.720Z,27.42
2018-04-07T07:52:14.686Z,27.13
2018-04-07T07:53:14.648Z,26.45
2018-04-07T07:54:14.614Z,27.23
2018-04-07T07:55:14.575Z,26.66
2018-04-07T07:56:14.542Z,26.66
2018-04-07T07:57:14.512Z,26.37
2018-04-07T07:58:14.469Z,26.77
2018-04-07T07:59:14.437Z,26.97
2018-04-07T08:00:14.393Z,25.81
2018-04-07T08:01:14.361Z,25.71
2018-04-07T08:02:14.324Z,25.61
2018-04-07T08:03:14.288Z,25.99
2018-04-07T08:04:14.251Z,26.50
2018-04-07T08:05:14.216Z,26.01
2018-04-07T08:06:14.186Z,25.24
2018-04-07T08:07:14.150Z,24.85
2018-04-07T08:08:14.109Z,24.67
2018-04-07T08:09:14.075Z,24.57
2018-04-07T08:10:14.040Z,24.96
2018-04-07T08:11:14.005Z,24.39
2018-04-07T08:12:13.970Z,24.68
2018-04-07T08:13:13.936Z,25.16
2018-04-07T08:14:13.908Z,24.19
2018-04-07T08:15:13.866Z,24.97
2018-04-07T08:16:13.830Z,24.87
2018-04-07T08:17:13.800Z,24.01
2018-04-07T08:18:13.760Z,24.21
2018-04-07T08:19:13.729Z,24.02
2018-04-07T08:20:13.691Z,23.72
2018-04-07T08:21:13.660Z,23.05
2018-04-07T08:22:13.627Z,22.86
2018-04-07T08:23:13.590Z,22.96
2018-04-07T08:24:13.552Z,22.67
2018-04-07T08:25:13.520Z,22.86
2018-04-07T08:26:13.529Z,22.78
2018-04-07T08:27:13.451Z,22.88
2018-04-07T08:28:13.417Z,21.81
2018-04-07T08:29:13.384Z,22.00
2018-04-07T08:30:13.348Z,21.81
2018-04-07T08:31:13.316Z,22.10
2018-04-07T08:32:13.369Z,21.81
2018-04-07T08:33:13.247Z,22.69
2018-04-07T08:34:13.215Z,22.99
2018-04-07T08:35:13.186Z,22.20
2018-04-07T08:36:13.146Z,22.30
2018-04-07T08:37:14.896Z,21.81
2018-04-07T08:38:13.085Z,21.91
2018-04-07T08:39:13.050Z,22.10
2018-04-07T08:40:13.013Z,22.10
2018-04-07T08:41:12.980Z,22.78
2018-04-07T08:42:12.947Z,21.81
2018-04-07T08:43:12.911Z,22.20
2018-04-07T08:44:12.876Z,21.81
2018-04-07T08:45:12.845Z,22.68
2018-04-07T08:46:12.811Z,22.67
2018-04-07T08:47:12.775Z,21.91
2018-04-07T08:48:12.748Z,22.20
2018-04-07T08:49:12.708Z,22.00
2018-04-07T08:50:12.675Z,21.81
2018-04-07T08:51:12.638Z,21.71
2018-04-07T08:52:12.611Z,22.39
2018-04-07T08:53:12.573Z,22.20
2018-04-07T08:54:12.542Z,21.81
2018-04-07T08:55:12.504Z,21.61
2018-04-07T08:56:12.470Z,21.61
2018-04-07T08:57:12.436Z,22.20
2018-04-07T08:58:12.402Z,22.20
2018-04-07T08:59:12.368Z,22.39
2018-04-07T09:00:12.334Z,21.80
2018-04-07T09:01:12.301Z,22.86
2018-04-07T09:02:12.265Z,22.67
2018-04-07T09:03:12.231Z,22.57
2018-04-07T09:04:12.196Z,22.86
2018-04-07T09:05:12.187Z,22.86
2018-04-07T09:06:12.127Z,22.19
2018-04-07T09:07:12.096Z,22.85
2018-04-07T09:08:12.061Z,24.11
2018-04-07T09:09:12.023Z,24.21
2018-04-07T09:10:11.990Z,23.53
2018-04-07T09:11:11.958Z,23.54
2018-04-07T09:12:11.922Z,23.35
2018-04-07T09:13:11.885Z,23.44
2018-04-07T09:14:11.854Z,22.96
2018-04-07T09:15:11.814Z,22.86
2018-04-07T09:16:11.782Z,23.25
2018-04-07T09:17:11.747Z,24.21
2018-04-07T09:18:11.715Z,23.43
2018-04-07T09:19:11.680Z,22.86
2018-04-07T09:20:11.640Z,22.38
2018-04-07T09:21:11.607Z,22.66
2018-04-07T09:22:11.576Z,22.66
2018-04-07T09:23:11.538Z,22.95
2018-04-07T09:24:11.502Z,22.47
2018-04-07T09:25:11.471Z,22.47
2018-04-07T09:26:11.432Z,22.47
2018-04-07T09:27:11.399Z,22.84
2018-04-07T09:28:11.371Z,22.84
2018-04-07T09:29:11.329Z,22.84
2018-04-07T09:30:11.292Z,23.32
2018-04-07T09:31:11.257Z,23.70
2018-04-07T09:32:11.221Z,23.50
2018-04-07T09:33:11.190Z,23.50
2018-04-07T09:34:11.161Z,23.70
2018-04-07T09:35:11.118Z,24.09
2018-04-07T09:36:11.082Z,24.38
2018-04-07T09:37:11.047Z,24.09
2018-04-07T09:38:11.009Z,23.70
2018-04-07T09:39:10.977Z,24.18
2018-04-07T09:40:10.942Z,23.60
2018-04-07T09:41:10.903Z,24.38
2018-04-07T09:42:10.868Z,23.90
2018-04-07T09:43:10.835Z,24.67
2018-04-07T09:44:10.800Z,24.77
2018-04-07T09:45:10.764Z,25.05
2018-04-07T09:46:10.727Z,25.05
2018-04-07T09:47:10.691Z,24.77
2018-04-07T09:48:10.656Z,24.77
2018-04-07T09:49:10.627Z,24.18
2018-04-07T09:50:10.598Z,24.67
2018-04-07T09:51:10.567Z,24.96
2018-04-07T09:52:10.516Z,24.67
2018-04-07T09:53:10.481Z,24.18
2018-04-07T09:54:10.444Z,24.77
2018-04-07T09:55:10.409Z,24.77
2018-04-07T09:56:10.374Z,25.35
2018-04-07T09:57:10.383Z,25.93
2018-04-07T09:58:10.305Z,25.15
2018-04-07T09:59:10.271Z,25.25
2018-04-07T10:00:10.232Z,25.25
2018-04-07T10:01:10.197Z,25.15
2018-04-07T10:02:10.163Z,25.35
2018-04-07T10:03:10.127Z,25.05
2018-04-07T10:04:10.092Z,26.12
2018-04-07T10:05:10.055Z,26.12
2018-04-07T10:06:10.019Z,25.83
2018-04-07T10:07:09.986Z,25.73
2018-04-07T10:08:09.948Z,26.21
2018-04-07T10:09:09.917Z,25.36
2018-04-07T10:10:09.883Z,25.16
2018-04-07T10:11:09.847Z,26.23
2018-04-07T10:12:09.807Z,25.56
2018-04-07T10:13:09.775Z,26.05
2018-04-07T10:14:09.739Z,27.22
2018-04-07T10:15:09.705Z,25.19
2018-04-07T10:16:09.669Z,24.99
2018-04-07T10:17:09.636Z,24.12
2018-04-07T10:18:09.601Z,24.12
2018-04-07T10:19:09.566Z,24.12
2018-04-07T10:20:09.531Z,23.54
2018-04-07T10:21:09.498Z,23.83
2018-04-07T10:22:09.472Z,24.99
2018-04-07T10:23:09.426Z,24.99
2018-04-07T10:24:09.392Z,25.29
2018-04-07T10:25:09.358Z,24.03
2018-04-07T10:26:09.322Z,23.64
2018-04-07T10:27:09.341Z,23.54
2018-04-07T10:28:09.281Z,24.11
2018-04-07T10:29:09.217Z,24.79
2018-04-07T10:30:09.191Z,25.09
2018-04-07T10:31:09.158Z,24.41
2018-04-07T10:32:09.117Z,25.38
2018-04-07T10:33:09.082Z,24.80
2018-04-07T10:34:09.046Z,25.87
2018-04-07T10:35:09.011Z,24.91
2018-04-07T10:36:08.976Z,24.91
2018-04-07T10:37:08.941Z,24.32
2018-04-07T10:38:08.909Z,24.51
2018-04-07T10:39:08.872Z,24.61
2018-04-07T10:40:08.836Z,24.90
2018-04-07T10:41:08.802Z,24.71
2018-04-07T10:42:09.474Z,24.72
2018-04-07T10:43:08.740Z,24.62
2018-04-07T10:44:08.696Z,24.82
2018-04-07T10:45:08.667Z,24.23
2018-04-07T10:46:08.629Z,24.43
2018-04-07T10:47:08.599Z,24.91
2018-04-07T10:48:08.558Z,25.01
2018-04-07T10:49:08.524Z,24.82
2018-04-07T10:50:08.492Z,24.13
2018-04-07T10:51:08.458Z,25.88
2018-04-07T10:52:08.425Z,25.40
2018-04-07T10:53:08.390Z,24.72
2018-04-07T10:54:08.350Z,24.23
2018-04-07T10:55:08.317Z,25.10
2018-04-07T10:56:08.281Z,24.91
2018-04-07T10:57:08.251Z,23.94
2018-04-07T10:58:08.217Z,24.04
2018-04-07T10:59:08.181Z,24.04
2018-04-07T11:00:08.146Z,23.83
2018-04-07T11:01:08.107Z,24.23
2018-04-07T11:02:08.074Z,23.94
2018-04-07T11:03:08.042Z,24.13
2018-04-07T11:04:08.006Z,24.52
2018-04-07T11:05:07.972Z,24.72
2018-04-07T11:06:07.961Z,23.65
2018-04-07T11:07:07.902Z,24.04
2018-04-07T11:08:07.866Z,24.04
2018-04-07T11:09:07.829Z,24.04
2018-04-07T11:10:07.795Z,23.94
2018-04-07T11:11:07.763Z,24.13
2018-04-07T11:12:07.733Z,24.04
2018-04-07T11:13:07.692Z,24.82
2018-04-07T11:14:07.654Z,23.94
2018-04-07T11:15:07.650Z,23.46
2018-04-07T11:16:07.589Z,23.37
2018-04-07T11:17:07.557Z,23.86
2018-04-07T11:18:07.516Z,24.73
2018-04-07T11:19:07.485Z,25.13
2018-04-07T11:20:07.459Z,23.48
2018-04-07T11:21:07.416Z,23.48
2018-04-07T11:22:07.380Z,23.20
2018-04-07T11:23:07.349Z,23.20
2018-04-07T11:24:07.319Z,23.30
2018-04-07T11:25:07.278Z,22.44
2018-04-07T11:26:07.255Z,21.77
2018-04-07T11:27:07.208Z,21.77
2018-04-07T11:28:07.170Z,21.29
2018-04-07T11:29:07.139Z,21.88
2018-04-07T11:30:07.103Z,21.31
2018-04-07T11:31:07.077Z,20.15
2018-04-07T11:32:07.036Z,19.47
2018-04-07T11:33:07.002Z,18.62
2018-04-07T11:34:06.973Z,18.72
2018-04-07T11:35:06.937Z,18.24
2018-04-07T11:36:06.909Z,17.86
2018-04-07T11:37:06.872Z,17.18
2018-04-07T11:38:06.839Z,17.19
2018-04-07T11:39:06.806Z,17.78
2018-04-07T11:40:06.773Z,17.29
2018-04-07T11:41:06.743Z,17.30
2018-04-07T11:42:06.708Z,17.10
2018-04-07T11:43:09.528Z,16.81
2018-04-07T11:44:06.650Z,17.00
2018-04-07T11:45:06.662Z,17.00
2018-04-07T11:46:06.580Z,17.68
2018-04-07T11:47:06.547Z,17.29
2018-04-07T11:48:06.517Z,17.10
2018-04-07T11:49:06.485Z,16.51
2018-04-07T11:50:06.460Z,16.51
2018-04-07T11:51:06.420Z,16.42
2018-04-07T11:52:06.387Z,16.42
2018-04-07T11:53:06.375Z,16.42
2018-04-07T11:54:06.328Z,16.44
2018-04-07T11:55:06.291Z,15.66
2018-04-07T11:56:06.258Z,15.77
2018-04-07T11:57:06.232Z,14.70
2018-04-07T11:58:06.194Z,15.19
2018-04-07T11:59:06.162Z,14.51
2018-04-07T12:00:06.129Z,14.90
2018-04-07T12:01:06.100Z,14.71
2018-04-07T12:02:06.069Z,13.54
2018-04-07T12:03:06.041Z,13.34
2018-04-07T12:04:06.006Z,13.93
2018-04-07T12:05:05.975Z,13.54
2018-04-07T12:06:05.943Z,13.43
2018-04-07T12:07:05.914Z,13.43
2018-04-07T12:08:05.880Z,14.22
2018-04-07T12:09:05.855Z,13.63
2018-04-07T12:10:05.819Z,14.22
2018-04-07T12:11:05.822Z,13.72
2018-04-07T12:12:05.803Z,14.12
2018-04-07T12:13:05.728Z,14.22
2018-04-07T12:14:05.696Z,13.62
2018-04-07T12:15:05.667Z,14.12
2018-04-07T12:16:05.633Z,14.12
2018-04-07T12:17:05.602Z,14.01
2018-04-07T12:18:05.570Z,13.62
2018-04-07T12:19:05.544Z,13.51
2018-04-07T12:20:05.513Z,13.70
2018-04-07T12:21:05.478Z,13.99
2018-04-07T12:22:05.445Z,14.67
2018-04-07T12:23:05.417Z,14.86
2018-04-07T12:24:05.382Z,15.06
2018-04-07T12:25:05.352Z,15.16
2018-04-07T12:26:05.330Z,14.86
2018-04-07T12:27:05.293Z,15.55
2018-04-07T12:28:05.260Z,15.95
2018-04-07T12:29:05.229Z,15.37
2018-04-07T12:30:05.196Z,14.97
2018-04-07T12:31:05.175Z,14.78
2018-04-07T12:32:05.134Z,14.58
2018-04-07T12:33:05.111Z,15.08
2018-04-07T12:34:05.075Z,15.86
2018-04-07T12:35:05.050Z,15.18
2018-04-07T12:36:05.011Z,14.69
2018-04-07T12:37:04.980Z,14.09
2018-04-07T12:38:04.946Z,14.29
2018-04-07T12:39:04.921Z,14.89
2018-04-07T12:40:04.884Z,14.60
2018-04-07T12:41:04.855Z,14.40
2018-04-07T12:42:04.820Z,14.01
2018-04-07T12:43:04.790Z,14.12
2018-04-07T12:44:09.814Z,14.01
2018-04-07T12:45:04.729Z,13.92
2018-04-07T12:46:04.695Z,13.34
2018-04-07T12:47:04.667Z,13.45
2018-04-07T12:48:04.633Z,13.65
2018-04-07T12:49:04.606Z,12.48
2018-04-07T12:50:04.572Z,12.68
2018-04-07T12:51:04.542Z,12.68
2018-04-07T12:52:04.510Z,12.29